Sunflower Tokyo — JH3422 — position and weather

sailwx.info

Track history (hours):
 
Tides and Currents Weather Stations Pressure Air Temp Water Temp Dewpoint Dewpoint Depression Visibility Wind Speed Wind Dir Waves Ship Positions

Sunflower Tokyo

Last reported at 2018-Jun-19 22:09 UTC. Time now 2018-Jun-20 07:18 UTC.
Position N 35°37' E 139°48'.

Length 167 m; draft 6.5 m.

Type: Cargo ship. MMSI: 431200647.

Date/timePositionNaut miles runAvg speedWind from/ knotsBaromVisibWave heightAir tempDewpointWater temp
2018-Jun-19 22:09N 35°37' E 139°48'0 0.0
2018-Jun-19 21:57N 35°37' E 139°48'0 0.9
2018-Jun-19 21:27N 35°37' E 139°48'612.8
2018-Jun-19 20:58N 35°31' E 139°52'818.3
2018-Jun-19 20:30N 35°24' E 139°46'612.9
2018-Jun-19 20:00N 35°18' E 139°44'612.1
2018-Jun-19 19:31N 35°12' E 139°47'1020.6
2018-Jun-19 19:01N 35°03' E 139°41'23620.6
2018-Jun-19 07:33N 33°40' E 135°13'221.0
2018-Jun-19 07:26N 33°42' E 135°11'920.9
2018-Jun-19 07:00N 33°49' E 135°04'1020.6
2018-Jun-19 06:31N 33°57' E 134°58'1121.6
2018-Jun-19 06:01N 34°08' E 134°58'1121.9
2018-Jun-19 05:31N 34°19' E 134°59'1121.2
2018-Jun-19 05:00N 34°30' E 135°01'815.2
2018-Jun-19 04:30N 34°37' E 134°58'1021.1
2018-Jun-19 04:00N 34°33' E 134°47'1121.6
2018-Jun-19 03:30N 34°28' E 134°35'1122.0
2018-Jun-19 03:00N 34°24' E 134°23'  
2018-Jun-15 13:51N 35°03' E 139°39'720.5
2018-Jun-15 13:30N 35°09' E 139°45'715.0
2018-Jun-15 13:00N 35°16' E 139°46'713.6
2018-Jun-15 12:30N 35°22' E 139°42'1020.9
2018-Jun-15 12:00N 35°30' E 139°51'8 2.6
2018-Jun-15 09:07N 35°37' E 139°48'0 0.0
2018-Jun-15 08:57N 35°37' E 139°48'0 0.0
2018-Jun-15 07:19N 35°37' E 139°48'0 0.0
2018-Jun-15 03:48N 35°37' E 139°48'0 0.0
2018-Jun-15 03:14N 35°37' E 139°48'0 0.0
2018-Jun-15 01:26N 35°37' E 139°48'0 0.0
2018-Jun-14 22:45N 35°37' E 139°48'0 0.0
2018-Jun-14 22:29N 35°37' E 139°48'0 0.0
2018-Jun-14 21:51N 35°37' E 139°48'0 0.0
2018-Jun-14 21:18N 35°37' E 139°48'0 0.0
2018-Jun-14 20:55N 35°37' E 139°48'0 0.1
2018-Jun-14 20:30N 35°37' E 139°47'3 6.3
2018-Jun-14 20:00N 35°34' E 139°49'612.4
2018-Jun-14 19:30N 35°28' E 139°51'611.5
2018-Jun-14 19:00N 35°24' E 139°46'611.5
2018-Jun-14 18:30N 35°18' E 139°44'612.4
2018-Jun-14 18:00N 35°12' E 139°47'1020.0
2018-Jun-14 17:30N 35°03' E 139°41'23720.3
2018-Jun-14 05:50N 33°40' E 135°13'823.2
2018-Jun-14 05:31N 33°46' E 135°07'1222.9
2018-Jun-14 05:00N 33°55' E 134°59'1122.9
2018-Jun-14 04:31N 34°06' E 134°58'1225.0
2018-Jun-14 04:01N 34°19' E 134°58'1223.1
2018-Jun-14 03:31N 34°30' E 135°02'815.1
2018-Jun-14 03:00N 34°36' E 134°56'1123.2
2018-Jun-14 02:30N 34°32' E 134°44'1122.5
2018-Jun-14 02:01N 34°27' E 134°31'1122.1
2018-Jun-14 01:30N 34°24' E 134°18'  
2018-Jun-11 14:28N 35°02' E 139°36'921.0
2018-Jun-11 14:01N 35°09' E 139°44'714.2
2018-Jun-11 13:30N 35°16' E 139°46'714.2
2018-Jun-11 13:00N 35°23' E 139°42'1020.7
2018-Jun-11 12:30N 35°30' E 139°51'713.1
2018-Jun-11 11:57N 35°37' E 139°47'0 0.1
2018-Jun-11 11:19N 35°37' E 139°48'0 0.0
2018-Jun-11 10:51N 35°37' E 139°48'0 0.0
2018-Jun-11 10:27N 35°37' E 139°48'0 0.0
2018-Jun-11 09:56N 35°37' E 139°48'0 0.0
2018-Jun-10 20:50N 35°37' E 139°48'0 0.0
2018-Jun-10 20:16N 35°37' E 139°48'0 0.0
2018-Jun-10 19:51N 35°37' E 139°48'0 0.0
2018-Jun-10 19:21N 35°37' E 139°48'0 0.0
2018-Jun-10 18:36N 35°37' E 139°48'0 0.0
2018-Jun-10 18:30N 35°37' E 139°48'0 0.0
2018-Jun-10 17:50N 35°37' E 139°48'0 0.0
2018-Jun-10 17:20N 35°37' E 139°48'0 0.0
2018-Jun-10 03:35N 35°37' E 139°48'0 0.0
2018-Jun-10 03:21N 35°37' E 139°48'1 2.5
2018-Jun-10 03:00N 35°36' E 139°47'714.4
2018-Jun-10 02:30N 35°30' E 139°52'917.4
2018-Jun-10 02:00N 35°23' E 139°46'611.3
2018-Jun-10 01:30N 35°17' E 139°45'612.6
2018-Jun-10 01:00N 35°11' E 139°46'  
Track history (hours):
 
Tides and Currents Weather Stations Pressure Air Temp Water Temp Dewpoint Dewpoint Depression Visibility Wind Speed Wind Dir Waves Ship Positions

Sunflower Tokyo

Last reported at 2018-Jun-19 22:09 UTC. Time now 2018-Jun-20 07:18 UTC.
Position N 35°37' E 139°48'.

Length 167 m; draft 6.5 m.

Type: Cargo ship. MMSI: 431200647.

Date/timePositionNaut miles runAvg speedWind from/ knotsBaromVisibWave heightAir tempDewpointWater temp
2018-Jun-19 22:09N 35°37' E 139°48'0 0.0
2018-Jun-19 21:57N 35°37' E 139°48'0 0.9
2018-Jun-19 21:27N 35°37' E 139°48'612.8
2018-Jun-19 20:58N 35°31' E 139°52'818.3
2018-Jun-19 20:30N 35°24' E 139°46'612.9
2018-Jun-19 20:00N 35°18' E 139°44'612.1
2018-Jun-19 19:31N 35°12' E 139°47'1020.6
2018-Jun-19 19:01N 35°03' E 139°41'23620.6
2018-Jun-19 07:33N 33°40' E 135°13'221.0
2018-Jun-19 07:26N 33°42' E 135°11'920.9
2018-Jun-19 07:00N 33°49' E 135°04'1020.6
2018-Jun-19 06:31N 33°57' E 134°58'1121.6
2018-Jun-19 06:01N 34°08' E 134°58'1121.9
2018-Jun-19 05:31N 34°19' E 134°59'1121.2
2018-Jun-19 05:00N 34°30' E 135°01'815.2
2018-Jun-19 04:30N 34°37' E 134°58'1021.1
2018-Jun-19 04:00N 34°33' E 134°47'1121.6
2018-Jun-19 03:30N 34°28' E 134°35'1122.0
2018-Jun-19 03:00N 34°24' E 134°23'  
2018-Jun-15 13:51N 35°03' E 139°39'720.5
2018-Jun-15 13:30N 35°09' E 139°45'715.0
2018-Jun-15 13:00N 35°16' E 139°46'713.6
2018-Jun-15 12:30N 35°22' E 139°42'1020.9
2018-Jun-15 12:00N 35°30' E 139°51'8 2.6
2018-Jun-15 09:07N 35°37' E 139°48'0 0.0
2018-Jun-15 08:57N 35°37' E 139°48'0 0.0
2018-Jun-15 07:19N 35°37' E 139°48'0 0.0
2018-Jun-15 03:48N 35°37' E 139°48'0 0.0
2018-Jun-15 03:14N 35°37' E 139°48'0 0.0
2018-Jun-15 01:26N 35°37' E 139°48'0 0.0
2018-Jun-14 22:45N 35°37' E 139°48'0 0.0
2018-Jun-14 22:29N 35°37' E 139°48'0 0.0
2018-Jun-14 21:51N 35°37' E 139°48'0 0.0
2018-Jun-14 21:18N 35°37' E 139°48'0 0.0
2018-Jun-14 20:55N 35°37' E 139°48'0 0.1
2018-Jun-14 20:30N 35°37' E 139°47'3 6.3
2018-Jun-14 20:00N 35°34' E 139°49'612.4
2018-Jun-14 19:30N 35°28' E 139°51'611.5
2018-Jun-14 19:00N 35°24' E 139°46'611.5
2018-Jun-14 18:30N 35°18' E 139°44'612.4
2018-Jun-14 18:00N 35°12' E 139°47'1020.0
2018-Jun-14 17:30N 35°03' E 139°41'23720.3
2018-Jun-14 05:50N 33°40' E 135°13'823.2
2018-Jun-14 05:31N 33°46' E 135°07'1222.9
2018-Jun-14 05:00N 33°55' E 134°59'1122.9
2018-Jun-14 04:31N 34°06' E 134°58'1225.0
2018-Jun-14 04:01N 34°19' E 134°58'1223.1
2018-Jun-14 03:31N 34°30' E 135°02'815.1
2018-Jun-14 03:00N 34°36' E 134°56'1123.2
2018-Jun-14 02:30N 34°32' E 134°44'1122.5
2018-Jun-14 02:01N 34°27' E 134°31'1122.1
2018-Jun-14 01:30N 34°24' E 134°18'  
2018-Jun-11 14:28N 35°02' E 139°36'921.0
2018-Jun-11 14:01N 35°09' E 139°44'714.2
2018-Jun-11 13:30N 35°16' E 139°46'714.2
2018-Jun-11 13:00N 35°23' E 139°42'1020.7
2018-Jun-11 12:30N 35°30' E 139°51'713.1
2018-Jun-11 11:57N 35°37' E 139°47'0 0.1
2018-Jun-11 11:19N 35°37' E 139°48'0 0.0
2018-Jun-11 10:51N 35°37' E 139°48'0 0.0
2018-Jun-11 10:27N 35°37' E 139°48'0 0.0
2018-Jun-11 09:56N 35°37' E 139°48'0 0.0
2018-Jun-10 20:50N 35°37' E 139°48'0 0.0
2018-Jun-10 20:16N 35°37' E 139°48'0 0.0
2018-Jun-10 19:51N 35°37' E 139°48'0 0.0
2018-Jun-10 19:21N 35°37' E 139°48'0 0.0
2018-Jun-10 18:36N 35°37' E 139°48'0 0.0
2018-Jun-10 18:30N 35°37' E 139°48'0 0.0
2018-Jun-10 17:50N 35°37' E 139°48'0 0.0
2018-Jun-10 17:20N 35°37' E 139°48'0 0.0
2018-Jun-10 03:35N 35°37' E 139°48'0 0.0
2018-Jun-10 03:21N 35°37' E 139°48'1 2.5
2018-Jun-10 03:00N 35°36' E 139°47'714.4
2018-Jun-10 02:30N 35°30' E 139°52'917.4
2018-Jun-10 02:00N 35°23' E 139°46'611.3
2018-Jun-10 01:30N 35°17' E 139°45'612.6
2018-Jun-10 01:00N 35°11' E 139°46'  

Dump ship's entire track history